createdAt,value
2023-04-29T00:01:59.297Z,6.53
2023-04-29T00:05:05.465Z,6.48
2023-04-29T00:08:09.798Z,6.43
2023-04-29T00:11:13.821Z,6.34
2023-04-29T00:14:17.923Z,6.30
2023-04-29T00:17:21.876Z,6.27
2023-04-29T00:20:25.978Z,6.22
2023-04-29T00:23:29.882Z,6.20
2023-04-29T00:26:35.019Z,6.18
2023-04-29T00:29:38.980Z,6.16
2023-04-29T00:32:44.726Z,6.15
2023-04-29T00:35:48.912Z,6.18
2023-04-29T00:38:53.153Z,6.20
2023-04-29T00:41:57.154Z,6.20
2023-04-29T00:45:01.164Z,6.19
2023-04-29T00:48:05.260Z,6.18
2023-04-29T00:51:10.233Z,6.17
2023-04-29T00:54:14.333Z,6.15
2023-04-29T00:57:19.997Z,6.14
2023-04-29T01:00:26.383Z,6.14
2023-04-29T01:03:32.651Z,6.14
2023-04-29T01:06:58.571Z,6.14
2023-04-29T01:10:22.780Z,6.16
2023-04-29T01:13:40.489Z,6.18
2023-04-29T01:16:55.546Z,6.17
2023-04-29T01:20:00.969Z,6.15
2023-04-29T01:23:05.049Z,6.12
2023-04-29T01:26:09.344Z,6.12
2023-04-29T01:29:46.264Z,6.12
2023-04-29T01:33:03.473Z,6.15
2023-04-29T01:36:20.685Z,6.16
2023-04-29T01:39:46.011Z,6.22
2023-04-29T01:43:02.003Z,6.31
2023-04-29T01:46:09.539Z,6.36
2023-04-29T01:49:13.925Z,6.42
2023-04-29T01:52:18.169Z,6.44
2023-04-29T01:55:29.633Z,6.45
2023-04-29T01:58:47.989Z,6.44
2023-04-29T02:02:10.538Z,6.46
2023-04-29T02:05:18.432Z,6.46
2023-04-29T02:08:29.374Z,6.46
2023-04-29T02:11:33.542Z,6.48
2023-04-29T02:14:38.998Z,6.49
2023-04-29T02:17:43.444Z,6.47
2023-04-29T02:20:49.982Z,6.46
2023-04-29T02:23:54.637Z,6.43
2023-04-29T02:27:00.692Z,6.41
2023-04-29T02:30:06.404Z,6.39
2023-04-29T02:33:10.508Z,6.37
2023-04-29T02:36:14.586Z,6.36
2023-04-29T02:39:20.143Z,6.38
2023-04-29T02:42:24.271Z,6.40
2023-04-29T02:45:28.205Z,6.41
2023-04-29T02:48:32.185Z,6.40
2023-04-29T02:51:36.122Z,6.39
2023-04-29T02:54:40.221Z,6.39
2023-04-29T02:57:44.531Z,6.39
2023-04-29T03:00:48.553Z,6.37
2023-04-29T03:03:52.859Z,6.35
2023-04-29T03:06:57.095Z,6.35
2023-04-29T03:10:03.014Z,6.36
2023-04-29T03:13:07.687Z,6.35
2023-04-29T03:16:17.009Z,6.33
2023-04-29T03:19:21.398Z,6.32
2023-04-29T03:22:26.889Z,6.32
2023-04-29T03:25:31.325Z,6.31
2023-04-29T03:28:35.299Z,6.32
2023-04-29T03:31:39.333Z,6.36
2023-04-29T03:34:43.575Z,6.42
2023-04-29T03:38:07.867Z,6.46
2023-04-29T03:41:12.701Z,6.49
2023-04-29T03:44:16.734Z,6.53
2023-04-29T03:47:20.635Z,6.55
2023-04-29T03:50:26.276Z,6.54
2023-04-29T03:53:30.916Z,6.55
2023-04-29T03:56:34.917Z,6.56
2023-04-29T03:59:38.946Z,6.56
2023-04-29T04:02:43.119Z,6.54
2023-04-29T04:05:47.443Z,6.52
2023-04-29T04:08:52.420Z,6.54
2023-04-29T04:12:01.695Z,6.56
2023-04-29T04:15:06.879Z,6.57
2023-04-29T04:18:10.811Z,6.60
2023-04-29T04:21:15.819Z,6.60
2023-04-29T04:24:23.369Z,6.61
2023-04-29T04:27:27.554Z,6.67
2023-04-29T04:30:36.078Z,6.73
2023-04-29T04:33:41.007Z,6.79
2023-04-29T04:36:45.770Z,6.85
2023-04-29T04:39:50.052Z,6.89
2023-04-29T04:42:55.623Z,6.94
2023-04-29T04:46:00.448Z,7.00
2023-04-29T04:49:05.812Z,7.05
2023-04-29T04:52:12.092Z,7.11
2023-04-29T04:55:16.305Z,7.20
2023-04-29T04:58:22.176Z,7.29
2023-04-29T05:01:26.348Z,7.38
2023-04-29T05:04:30.558Z,7.48
2023-04-29T05:07:37.711Z,7.58
2023-04-29T05:10:42.375Z,7.69
2023-04-29T05:13:48.717Z,7.81
2023-04-29T05:16:53.283Z,7.93
2023-04-29T05:19:57.666Z,8.05
2023-04-29T05:23:02.720Z,8.18
2023-04-29T05:26:09.869Z,8.30
2023-04-29T05:29:14.015Z,8.40
2023-04-29T05:32:31.658Z,8.50
2023-04-29T05:35:35.741Z,8.59
2023-04-29T05:38:40.065Z,8.66
2023-04-29T05:41:46.046Z,8.75
2023-04-29T05:45:09.798Z,8.84
2023-04-29T05:48:14.096Z,8.93
2023-04-29T05:51:18.164Z,9.05
2023-04-29T05:54:22.180Z,9.17
2023-04-29T05:57:26.195Z,9.28
2023-04-29T06:00:31.956Z,9.39
2023-04-29T06:03:38.445Z,9.50
2023-04-29T06:07:06.015Z,9.63
2023-04-29T06:10:26.088Z,9.74
2023-04-29T06:13:31.026Z,9.85
2023-04-29T06:16:35.091Z,9.95
2023-04-29T06:19:39.260Z,10.05
2023-04-29T06:22:43.171Z,10.15
2023-04-29T06:25:47.378Z,10.25
2023-04-29T06:28:51.610Z,10.37
2023-04-29T06:31:56.382Z,10.48
2023-04-29T06:35:01.322Z,10.60
2023-04-29T06:38:24.024Z,10.74
2023-04-29T06:41:46.684Z,10.89
2023-04-29T06:45:10.043Z,11.04
2023-04-29T06:48:23.057Z,11.19
2023-04-29T06:51:28.039Z,11.31
2023-04-29T06:54:32.007Z,11.42
2023-04-29T06:57:36.990Z,11.51
2023-04-29T07:00:41.099Z,11.58
2023-04-29T07:03:45.356Z,11.67
2023-04-29T07:06:49.561Z,11.79
2023-04-29T07:09:54.606Z,11.90
2023-04-29T07:13:00.547Z,11.99
2023-04-29T07:16:05.125Z,12.06
2023-04-29T07:19:09.073Z,12.13
2023-04-29T07:22:13.161Z,12.19
2023-04-29T07:25:17.124Z,12.26
2023-04-29T07:28:21.236Z,12.33
2023-04-29T07:31:25.330Z,12.39
2023-04-29T07:34:29.586Z,12.48
2023-04-29T07:37:33.793Z,12.62
2023-04-29T07:40:37.695Z,12.78
2023-04-29T07:43:42.619Z,12.92
2023-04-29T07:46:46.898Z,13.09
2023-04-29T07:49:51.705Z,13.23
2023-04-29T07:52:57.845Z,13.38
2023-04-29T07:56:06.585Z,13.53
2023-04-29T07:59:10.696Z,13.71
2023-04-29T08:02:16.808Z,13.83
2023-04-29T08:05:22.599Z,13.94
2023-04-29T08:08:26.927Z,14.02
2023-04-29T08:11:30.968Z,14.09
2023-04-29T08:14:34.980Z,14.15
2023-04-29T08:17:39.050Z,14.21
2023-04-29T08:20:43.133Z,14.25
2023-04-29T08:23:47.231Z,14.28
2023-04-29T08:26:52.576Z,14.35
2023-04-29T08:29:56.697Z,14.44
2023-04-29T08:33:00.938Z,14.53
2023-04-29T08:36:06.086Z,14.63
2023-04-29T08:39:10.408Z,14.75
2023-04-29T08:42:14.387Z,14.86
2023-04-29T08:45:20.372Z,14.97
2023-04-29T08:48:26.763Z,15.07
2023-04-29T08:51:32.360Z,15.16
2023-04-29T08:54:36.381Z,15.26
2023-04-29T08:57:42.163Z,15.35
2023-04-29T09:00:46.576Z,15.44
2023-04-29T09:04:25.738Z,15.52
2023-04-29T09:07:32.096Z,15.63
2023-04-29T09:10:37.943Z,15.75
2023-04-29T09:13:41.913Z,15.86
2023-04-29T09:16:48.921Z,15.94
2023-04-29T09:19:52.957Z,16.04
2023-04-29T09:22:59.982Z,16.13
2023-04-29T09:26:04.061Z,16.20
2023-04-29T09:29:09.230Z,16.30
2023-04-29T09:32:19.971Z,16.45
2023-04-29T09:35:28.305Z,16.59
2023-04-29T09:38:32.374Z,16.73
2023-04-29T09:41:36.353Z,16.85
2023-04-29T09:44:42.559Z,16.95
2023-04-29T09:47:46.839Z,17.09
2023-04-29T09:51:02.295Z,17.20
2023-04-29T09:54:22.017Z,17.32
2023-04-29T09:57:42.630Z,17.45
2023-04-29T10:00:48.764Z,17.53
2023-04-29T10:03:55.627Z,17.60
2023-04-29T10:07:01.183Z,17.63
2023-04-29T10:10:06.494Z,17.69
2023-04-29T10:13:10.538Z,17.74
2023-04-29T10:16:31.438Z,17.80
2023-04-29T10:19:45.799Z,17.98
2023-04-29T10:22:52.164Z,18.14
2023-04-29T10:26:00.114Z,18.26
2023-04-29T10:29:05.530Z,18.37
2023-04-29T10:32:10.989Z,18.47
2023-04-29T10:35:16.758Z,18.54
2023-04-29T10:38:26.724Z,18.61
2023-04-29T10:41:37.266Z,18.67
2023-04-29T10:45:18.688Z,18.75
2023-04-29T10:48:24.748Z,18.86
2023-04-29T10:51:48.950Z,18.97
2023-04-29T10:55:03.987Z,19.18
2023-04-29T10:58:46.169Z,19.40
2023-04-29T11:01:52.276Z,19.63
2023-04-29T11:05:10.668Z,19.81
2023-04-29T11:08:24.317Z,19.83
2023-04-29T11:11:58.413Z,19.84
2023-04-29T11:15:05.125Z,20.03
2023-04-29T11:18:11.638Z,20.21
2023-04-29T11:21:15.776Z,20.11
2023-04-29T11:24:19.934Z,20.03
2023-04-29T11:27:26.798Z,20.04
2023-04-29T11:30:32.092Z,19.97
2023-04-29T11:33:36.404Z,19.96
2023-04-29T11:36:40.653Z,19.93
2023-04-29T11:39:44.693Z,19.93
2023-04-29T11:42:49.752Z,19.93
2023-04-29T11:45:54.338Z,20.00
2023-04-29T11:49:00.313Z,19.96
2023-04-29T11:52:04.565Z,19.85
2023-04-29T11:55:12.057Z,19.77
2023-04-29T11:58:16.868Z,19.74
2023-04-29T12:01:21.691Z,19.76
2023-04-29T12:04:26.272Z,19.88
2023-04-29T12:07:30.453Z,20.07
2023-04-29T12:10:36.933Z,20.27
2023-04-29T12:13:41.564Z,20.47
2023-04-29T12:16:46.486Z,20.65
2023-04-29T12:19:51.741Z,20.71
2023-04-29T12:22:55.940Z,20.66
2023-04-29T12:26:01.028Z,20.60
2023-04-29T12:29:05.211Z,20.51
2023-04-29T12:32:16.813Z,20.47
2023-04-29T12:35:22.048Z,20.50
2023-04-29T12:38:28.311Z,20.56
2023-04-29T12:41:42.404Z,20.78
2023-04-29T12:44:47.794Z,21.01
2023-04-29T12:47:52.174Z,21.05
2023-04-29T12:50:58.525Z,21.02
2023-04-29T12:54:04.297Z,20.99
2023-04-29T12:57:10.113Z,21.04
2023-04-29T13:00:15.697Z,21.04
2023-04-29T13:03:22.181Z,21.12
2023-04-29T13:06:27.407Z,21.17
2023-04-29T13:09:31.620Z,21.06
2023-04-29T13:12:35.730Z,20.98
2023-04-29T13:15:39.758Z,20.95
2023-04-29T13:18:53.668Z,20.91
2023-04-29T13:22:07.890Z,20.85
2023-04-29T13:25:12.416Z,20.80
2023-04-29T13:28:16.610Z,20.67
2023-04-29T13:31:21.261Z,20.47
2023-04-29T13:34:25.364Z,20.31
2023-04-29T13:37:29.381Z,20.16
2023-04-29T13:40:38.369Z,20.06
2023-04-29T13:43:43.634Z,19.99
2023-04-29T13:46:48.015Z,20.01
2023-04-29T13:53:23.641Z,19.90
2023-04-29T14:02:39.821Z,20.19
2023-04-29T14:05:44.571Z,20.27
2023-04-29T14:08:48.645Z,20.31
2023-04-29T14:11:52.678Z,20.34
2023-04-29T14:14:59.481Z,20.34
2023-04-29T14:18:04.418Z,20.29
2023-04-29T14:21:08.926Z,20.20
2023-04-29T14:24:13.439Z,20.14
2023-04-29T14:27:17.290Z,20.12
2023-04-29T14:30:21.685Z,20.06
2023-04-29T14:33:25.713Z,19.99
2023-04-29T14:36:29.644Z,19.95
2023-04-29T14:39:33.621Z,19.91
2023-04-29T14:42:37.736Z,19.86
2023-04-29T14:45:42.191Z,19.80
2023-04-29T14:48:46.382Z,19.81
2023-04-29T14:51:50.277Z,19.79
2023-04-29T14:54:54.647Z,19.75
2023-04-29T14:57:58.842Z,19.72
2023-04-29T15:01:02.853Z,19.67
2023-04-29T15:04:07.493Z,19.64
2023-04-29T15:07:15.824Z,19.62
2023-04-29T15:10:19.803Z,19.58
2023-04-29T15:13:23.821Z,19.59
2023-04-29T15:16:28.740Z,19.59
2023-04-29T15:19:32.893Z,19.56
2023-04-29T15:22:37.095Z,19.53
2023-04-29T15:25:40.991Z,19.50
2023-04-29T15:28:46.166Z,19.44
2023-04-29T15:31:50.254Z,19.34
2023-04-29T15:34:55.634Z,19.26
2023-04-29T15:37:59.657Z,19.20
2023-04-29T15:41:04.117Z,19.17
2023-04-29T15:44:08.087Z,19.16
2023-04-29T15:47:12.103Z,19.24
2023-04-29T15:50:16.428Z,19.36
2023-04-29T15:53:20.311Z,19.46
2023-04-29T15:56:25.564Z,19.51
2023-04-29T15:59:30.583Z,19.56
2023-04-29T16:02:34.701Z,19.60
2023-04-29T16:05:38.866Z,19.60
2023-04-29T16:08:42.776Z,19.53
2023-04-29T16:11:47.099Z,19.37
2023-04-29T16:14:51.544Z,19.13
2023-04-29T16:17:55.666Z,18.93
2023-04-29T16:20:59.682Z,18.75
2023-04-29T16:24:03.757Z,18.58
2023-04-29T16:27:07.667Z,18.42
2023-04-29T16:30:12.140Z,18.28
2023-04-29T16:33:16.501Z,18.17
2023-04-29T16:36:20.563Z,18.06
2023-04-29T16:39:24.571Z,17.96
2023-04-29T16:42:28.591Z,17.86
2023-04-29T16:45:32.837Z,17.77
2023-04-29T16:48:36.845Z,17.69
2023-04-29T16:51:40.948Z,17.63
2023-04-29T16:54:44.864Z,17.57
2023-04-29T16:57:48.811Z,17.50
2023-04-29T17:00:53.805Z,17.44
2023-04-29T17:03:58.065Z,17.38
2023-04-29T17:07:03.056Z,17.32
2023-04-29T17:10:08.284Z,17.28
2023-04-29T17:13:12.182Z,17.23
2023-04-29T17:16:17.069Z,17.17
2023-04-29T17:19:21.181Z,17.10
2023-04-29T17:22:25.200Z,17.03
2023-04-29T17:25:29.149Z,16.97
2023-04-29T17:28:33.140Z,16.89
2023-04-29T17:31:48.108Z,16.83
2023-04-29T17:34:53.245Z,16.76
2023-04-29T17:37:57.361Z,16.69
2023-04-29T17:41:02.331Z,16.64
2023-04-29T17:44:08.042Z,16.58
2023-04-29T17:47:12.801Z,16.51
2023-04-29T17:50:17.017Z,16.44
2023-04-29T17:53:21.012Z,16.37
2023-04-29T17:56:26.357Z,16.31
2023-04-29T17:59:30.895Z,16.23
2023-04-29T18:02:34.996Z,16.16
2023-04-29T18:05:39.336Z,16.10
2023-04-29T18:08:43.330Z,16.03
2023-04-29T18:11:47.463Z,15.95
2023-04-29T18:14:52.043Z,15.88
2023-04-29T18:17:56.133Z,15.78
2023-04-29T18:21:00.137Z,15.68
2023-04-29T18:24:04.241Z,15.60
2023-04-29T18:27:08.287Z,15.53
2023-04-29T18:30:13.292Z,15.47
2023-04-29T18:33:17.398Z,15.39
2023-04-29T18:36:21.633Z,15.33
2023-04-29T18:39:25.661Z,15.26
2023-04-29T18:42:30.742Z,15.19
2023-04-29T18:45:35.119Z,15.14
2023-04-29T18:48:40.591Z,15.09
2023-04-29T18:51:47.990Z,15.02
2023-04-29T18:54:52.391Z,14.94
2023-04-29T18:57:56.498Z,14.87
2023-04-29T19:01:02.700Z,14.80
2023-04-29T19:04:08.620Z,14.72
2023-04-29T19:07:13.858Z,14.65
2023-04-29T19:10:17.895Z,14.58
2023-04-29T19:13:22.127Z,14.53
2023-04-29T19:16:26.683Z,14.50
2023-04-29T19:19:30.967Z,14.50
2023-04-29T19:22:34.982Z,14.53
2023-04-29T19:25:39.311Z,14.55
2023-04-29T19:28:43.336Z,14.57
2023-04-29T19:31:47.376Z,14.58
2023-04-29T19:34:51.438Z,14.58
2023-04-29T19:37:55.568Z,14.57
2023-04-29T19:40:59.493Z,14.53
2023-04-29T19:44:03.505Z,14.49
2023-04-29T19:47:07.477Z,14.42
2023-04-29T19:50:11.490Z,14.36
2023-04-29T19:53:15.471Z,14.29
2023-04-29T19:56:20.069Z,14.23
2023-04-29T19:59:24.004Z,14.17
2023-04-29T20:02:28.021Z,14.12
2023-04-29T20:05:32.212Z,14.08
2023-04-29T20:08:37.301Z,14.04
2023-04-29T20:11:41.293Z,14.01
2023-04-29T20:14:45.709Z,14.00
2023-04-29T20:17:49.759Z,14.01
2023-04-29T20:20:53.748Z,14.02
2023-04-29T20:23:57.675Z,14.00
2023-04-29T20:27:01.665Z,13.95
2023-04-29T20:30:06.575Z,13.92
2023-04-29T20:33:10.605Z,13.88
2023-04-29T20:36:14.557Z,13.83
2023-04-29T20:39:18.758Z,13.78
2023-04-29T20:42:22.682Z,13.75
2023-04-29T20:45:26.790Z,13.72
2023-04-29T20:48:30.902Z,13.70
2023-04-29T20:51:34.921Z,13.65
2023-04-29T20:54:39.179Z,13.62
2023-04-29T20:57:43.141Z,13.61
2023-04-29T21:00:47.052Z,13.60
2023-04-29T21:03:52.212Z,13.63
2023-04-29T21:06:56.231Z,13.64
2023-04-29T21:10:00.193Z,13.62
2023-04-29T21:13:04.370Z,13.57
2023-04-29T21:16:08.546Z,13.52
2023-04-29T21:19:12.585Z,13.42
2023-04-29T21:22:16.523Z,13.36
2023-04-29T21:25:20.531Z,13.29
2023-04-29T21:28:24.553Z,13.21
2023-04-29T21:31:30.260Z,13.14
2023-04-29T21:34:35.454Z,13.11
2023-04-29T21:37:39.466Z,13.11
2023-04-29T21:40:46.631Z,13.13
2023-04-29T21:43:50.998Z,13.15
2023-04-29T21:46:55.228Z,13.17
2023-04-29T21:49:59.403Z,13.16
2023-04-29T21:53:03.610Z,13.13
2023-04-29T21:56:07.937Z,13.07
2023-04-29T21:59:11.820Z,13.01
2023-04-29T22:02:22.393Z,12.93
2023-04-29T22:05:26.982Z,12.89
2023-04-29T22:08:30.937Z,12.86
2023-04-29T22:11:35.005Z,12.84
2023-04-29T22:14:39.011Z,12.83
2023-04-29T22:17:43.102Z,12.86
2023-04-29T22:20:47.232Z,12.89
2023-04-29T22:23:51.269Z,12.90
2023-04-29T22:26:55.405Z,12.91
2023-04-29T22:29:59.577Z,12.91
2023-04-29T22:33:03.655Z,12.90
2023-04-29T22:36:07.840Z,12.88
2023-04-29T22:39:11.964Z,12.87
2023-04-29T22:42:15.874Z,12.86
2023-04-29T22:45:19.824Z,12.85
2023-04-29T22:48:26.578Z,12.89
2023-04-29T22:51:32.325Z,12.93
2023-04-29T22:54:36.337Z,12.98
2023-04-29T22:57:40.465Z,13.01
2023-04-29T23:00:52.870Z,13.04
2023-04-29T23:03:56.989Z,13.05
2023-04-29T23:07:00.902Z,13.07
2023-04-29T23:10:05.923Z,13.09
2023-04-29T23:13:09.866Z,13.09
2023-04-29T23:16:13.925Z,13.08
2023-04-29T23:19:17.943Z,13.10
2023-04-29T23:22:21.876Z,13.10
2023-04-29T23:25:26.126Z,13.11
2023-04-29T23:28:30.178Z,13.14
2023-04-29T23:31:34.251Z,13.16
2023-04-29T23:34:38.214Z,13.18
2023-04-29T23:37:42.248Z,13.22
2023-04-29T23:40:47.078Z,13.24
2023-04-29T23:43:51.042Z,13.24
2023-04-29T23:46:55.058Z,13.22
2023-04-29T23:49:58.958Z,13.18
2023-04-29T23:53:03.184Z,13.14
2023-04-29T23:56:08.068Z,13.11
2023-04-29T23:59:12.035Z,13.11
